createdAt,value
2022-12-19T00:01:34.962Z,102086.66
2022-12-19T00:04:09.305Z,102086.43
2022-12-19T00:06:43.357Z,102080.11
2022-12-19T00:09:13.952Z,102082.29
2022-12-19T00:11:42.751Z,102081.75
2022-12-19T00:14:11.987Z,102084.73
2022-12-19T00:16:40.908Z,102084.73
2022-12-19T00:19:11.791Z,102090.58
2022-12-19T00:21:40.531Z,102092.23
2022-12-19T00:24:18.452Z,102097.19
2022-12-19T00:26:50.468Z,102099.54
2022-12-19T00:29:19.269Z,102092.67
2022-12-19T00:31:48.078Z,102091.71
2022-12-19T00:34:16.927Z,102083.99
2022-12-19T00:36:45.791Z,102071.85
2022-12-19T00:39:14.540Z,102061.89
2022-12-19T00:41:43.338Z,102063.84
2022-12-19T00:44:17.191Z,102065.48
2022-12-19T00:46:50.271Z,102067.95
2022-12-19T00:49:21.823Z,102068.35
2022-12-19T00:51:50.850Z,102066.14
2022-12-19T00:54:19.678Z,102064.38
2022-12-19T00:56:48.996Z,102064.29
2022-12-19T00:59:21.054Z,102065.20
2022-12-19T01:01:55.452Z,102073.36
2022-12-19T01:04:28.913Z,102073.72
2022-12-19T01:07:02.344Z,102075.08
2022-12-19T01:09:33.470Z,102074.88
2022-12-19T01:12:24.855Z,102072.80
2022-12-19T01:14:58.509Z,102077.55
2022-12-19T01:17:43.729Z,102072.52
2022-12-19T01:20:21.628Z,102071.45
2022-12-19T01:23:00.296Z,102062.98
2022-12-19T01:25:29.483Z,102052.02
2022-12-19T01:27:58.125Z,102049.88
2022-12-19T01:30:29.200Z,102042.61
2022-12-19T01:33:01.008Z,102035.49
2022-12-19T01:35:29.623Z,102024.20
2022-12-19T01:38:08.374Z,102023.26
2022-12-19T01:40:38.321Z,102013.53
2022-12-19T01:43:14.287Z,102009.63
2022-12-19T01:45:45.910Z,102010.45
2022-12-19T01:48:33.725Z,102001.77
2022-12-19T01:51:08.300Z,101998.16
2022-12-19T01:53:49.237Z,101986.77
2022-12-19T01:56:26.167Z,101980.59
2022-12-19T01:59:01.719Z,101972.88
2022-12-19T02:01:40.032Z,101970.73
2022-12-19T02:04:21.280Z,101971.73
2022-12-19T02:06:52.023Z,101966.16
2022-12-19T02:09:20.735Z,101968.88
2022-12-19T02:11:49.417Z,101967.34
2022-12-19T02:14:18.467Z,101963.04
2022-12-19T02:17:14.874Z,101954.27
2022-12-19T02:20:18.889Z,101950.84
2022-12-19T02:23:11.792Z,101946.44
2022-12-19T02:26:06.481Z,101931.75
2022-12-19T02:28:57.094Z,101931.52
2022-12-19T02:31:43.121Z,101938.45
2022-12-19T02:34:44.091Z,101939.25
2022-12-19T02:37:38.103Z,101931.73
2022-12-19T02:40:33.948Z,101931.64
2022-12-19T02:43:06.601Z,101935.63
2022-12-19T02:45:39.910Z,101931.20
2022-12-19T02:48:09.650Z,101930.77
2022-12-19T02:50:43.645Z,101924.95
2022-12-19T02:53:15.973Z,101917.44
2022-12-19T02:56:29.953Z,101909.14
2022-12-19T02:59:10.295Z,101897.50
2022-12-19T03:02:00.378Z,101882.04
2022-12-19T03:04:49.034Z,101880.46
2022-12-19T03:07:48.305Z,101885.08
2022-12-19T03:10:42.418Z,101888.20
2022-12-19T03:13:32.768Z,101893.16
2022-12-19T03:16:03.467Z,101890.81
2022-12-19T03:18:33.788Z,101893.64
2022-12-19T03:21:25.559Z,101884.94
2022-12-19T03:23:55.809Z,101880.63
2022-12-19T03:26:30.442Z,101876.89
2022-12-19T03:29:43.855Z,101864.67
2022-12-19T03:32:16.395Z,101860.54
2022-12-19T03:34:55.546Z,101855.89
2022-12-19T03:37:29.886Z,101858.05
2022-12-19T03:40:03.302Z,101859.18
2022-12-19T03:42:52.675Z,101856.77
2022-12-19T03:45:31.431Z,101857.69
2022-12-19T03:48:07.768Z,101863.17
2022-12-19T03:51:19.932Z,101861.23
2022-12-19T03:54:01.889Z,101857.23
2022-12-19T03:57:03.034Z,101844.86
2022-12-19T03:59:41.253Z,101845.02
2022-12-19T04:02:13.239Z,101843.15
2022-12-19T04:04:53.646Z,101841.13
2022-12-19T04:07:23.647Z,101837.48
2022-12-19T04:09:55.860Z,101834.31
2022-12-19T04:12:33.405Z,101829.14
2022-12-19T04:15:02.452Z,101826.39
2022-12-19T04:17:44.137Z,101826.02
2022-12-19T04:20:17.557Z,101826.98
2022-12-19T04:22:52.166Z,101820.13
2022-12-19T04:25:29.785Z,101811.92
2022-12-19T04:28:08.033Z,101814.11
2022-12-19T04:30:40.041Z,101808.50
2022-12-19T04:33:08.601Z,101806.77
2022-12-19T04:35:37.993Z,101809.38
2022-12-19T04:38:07.135Z,101810.77
2022-12-19T04:40:41.190Z,101809.13
2022-12-19T04:43:10.273Z,101814.08
2022-12-19T04:45:40.912Z,101814.81
2022-12-19T04:48:09.851Z,101813.02
2022-12-19T04:50:38.437Z,101804.46
2022-12-19T04:53:07.309Z,101801.20
2022-12-19T04:55:36.247Z,101797.71
2022-12-19T04:58:06.108Z,101793.91
2022-12-19T05:00:34.888Z,101788.71
2022-12-19T05:03:03.587Z,101782.77
2022-12-19T05:05:32.242Z,101781.21
2022-12-19T05:08:00.820Z,101779.56
2022-12-19T05:10:30.201Z,101776.61
2022-12-19T05:12:58.854Z,101778.22
2022-12-19T05:15:27.451Z,101773.03
2022-12-19T05:17:55.967Z,101780.08
2022-12-19T05:20:24.619Z,101781.98
2022-12-19T05:22:53.214Z,101787.24
2022-12-19T05:25:21.773Z,101792.55
2022-12-19T05:27:50.339Z,101795.34
2022-12-19T05:30:19.030Z,101793.55
2022-12-19T05:32:47.570Z,101791.39
2022-12-19T05:35:16.311Z,101784.33
2022-12-19T05:37:44.837Z,101782.86
2022-12-19T05:40:13.377Z,101772.95
2022-12-19T05:42:42.372Z,101773.69
2022-12-19T05:45:11.129Z,101770.02
2022-12-19T05:47:39.740Z,101762.94
2022-12-19T05:50:08.948Z,101758.59
2022-12-19T05:52:37.551Z,101759.64
2022-12-19T05:55:08.035Z,101762.60
2022-12-19T05:57:36.984Z,101760.61
2022-12-19T06:00:09.376Z,101760.14
2022-12-19T06:02:38.215Z,101761.06
2022-12-19T06:05:07.426Z,101756.07
2022-12-19T06:07:36.239Z,101752.10
2022-12-19T06:10:07.089Z,101747.06
2022-12-19T06:12:35.691Z,101741.50
2022-12-19T06:15:04.712Z,101742.26
2022-12-19T06:17:33.473Z,101750.13
2022-12-19T06:20:01.956Z,101748.86
2022-12-19T06:22:30.500Z,101758.61
2022-12-19T06:24:59.000Z,101753.45
2022-12-19T06:27:27.654Z,101760.47
2022-12-19T06:29:56.208Z,101766.78
2022-12-19T06:32:24.764Z,101772.60
2022-12-19T06:35:04.189Z,101779.09
2022-12-19T06:37:33.407Z,101774.23
2022-12-19T06:40:01.947Z,101767.81
2022-12-19T06:42:30.736Z,101764.91
2022-12-19T06:44:59.312Z,101766.58
2022-12-19T06:47:27.878Z,101767.94
2022-12-19T06:49:56.401Z,101769.22
2022-12-19T06:52:25.861Z,101765.57
2022-12-19T06:54:54.454Z,101762.89
2022-12-19T06:57:23.014Z,101755.61
2022-12-19T06:59:51.588Z,101754.65
2022-12-19T07:02:31.389Z,101747.10
2022-12-19T07:05:05.620Z,101747.19
2022-12-19T07:07:34.451Z,101753.84
2022-12-19T07:10:05.923Z,101749.13
2022-12-19T07:12:35.652Z,101755.30
2022-12-19T07:15:04.984Z,101744.46
2022-12-19T07:17:36.432Z,101732.96
2022-12-19T07:20:05.778Z,101736.92
2022-12-19T07:22:36.134Z,101735.33
2022-12-19T07:25:06.268Z,101730.38
2022-12-19T07:27:36.085Z,101730.84
2022-12-19T07:30:07.954Z,101736.76
2022-12-19T07:32:37.041Z,101725.38
2022-12-19T07:35:07.647Z,101718.95
2022-12-19T07:37:36.349Z,101720.65
2022-12-19T07:40:05.669Z,101722.05
2022-12-19T07:42:34.384Z,101721.06
2022-12-19T07:45:02.996Z,101722.77
2022-12-19T07:47:31.726Z,101721.77
2022-12-19T07:50:00.290Z,101723.30
2022-12-19T07:52:29.023Z,101722.66
2022-12-19T07:54:57.599Z,101716.94
2022-12-19T07:57:26.241Z,101716.83
2022-12-19T07:59:54.813Z,101716.34
2022-12-19T08:02:23.665Z,101701.10
2022-12-19T08:04:52.460Z,101694.38
2022-12-19T08:07:21.315Z,101687.92
2022-12-19T08:09:49.873Z,101687.61
2022-12-19T08:12:18.565Z,101699.89
2022-12-19T08:14:47.137Z,101709.94
2022-12-19T08:17:21.026Z,101707.23
2022-12-19T08:19:50.073Z,101697.23
2022-12-19T08:22:18.880Z,101690.42
2022-12-19T08:24:47.383Z,101679.52
2022-12-19T08:27:17.490Z,101681.20
2022-12-19T08:29:46.154Z,101679.47
2022-12-19T08:32:20.959Z,101676.19
2022-12-19T08:34:50.620Z,101680.55
2022-12-19T08:37:19.242Z,101672.77
2022-12-19T08:39:47.852Z,101670.24
2022-12-19T08:42:16.809Z,101663.95
2022-12-19T08:44:45.462Z,101660.72
2022-12-19T08:47:14.013Z,101654.91
2022-12-19T08:49:42.649Z,101652.52
2022-12-19T08:52:11.174Z,101644.66
2022-12-19T08:54:39.756Z,101646.55
2022-12-19T08:57:08.277Z,101644.50
2022-12-19T08:59:36.833Z,101641.59
2022-12-19T09:02:06.923Z,101639.88
2022-12-19T09:05:58.579Z,101635.61
2022-12-19T09:07:24.356Z,101637.97
2022-12-19T09:09:53.355Z,101641.56
2022-12-19T09:12:21.935Z,101638.98
2022-12-19T09:14:50.650Z,101641.17
2022-12-19T09:17:19.318Z,101637.35
2022-12-19T09:19:48.487Z,101640.88
2022-12-19T09:22:17.099Z,101635.29
2022-12-19T09:24:46.000Z,101634.83
2022-12-19T09:27:14.832Z,101627.24
2022-12-19T09:29:44.048Z,101627.72
2022-12-19T09:32:12.671Z,101622.34
2022-12-19T09:34:41.244Z,101613.36
2022-12-19T09:37:16.951Z,101604.89
2022-12-19T09:39:47.892Z,101599.39
2022-12-19T09:42:54.606Z,101597.10
2022-12-19T09:45:45.176Z,101597.15
2022-12-19T09:48:24.404Z,101595.11
2022-12-19T09:51:32.924Z,101589.30
2022-12-19T09:54:20.685Z,101581.65
2022-12-19T09:56:54.158Z,101579.52
2022-12-19T09:59:41.548Z,101578.33
2022-12-19T10:02:41.915Z,101574.05
2022-12-19T10:06:41.127Z,101568.23
2022-12-19T10:08:24.007Z,101558.62
2022-12-19T10:12:45.956Z,101565.02
2022-12-19T10:14:54.550Z,101562.00
2022-12-19T10:18:06.297Z,101560.93
2022-12-19T10:20:45.703Z,101565.91
2022-12-19T10:23:37.372Z,101556.40
2022-12-19T10:26:40.087Z,101554.74
2022-12-19T10:29:30.158Z,101542.02
2022-12-19T10:32:33.544Z,101535.29
2022-12-19T10:35:02.937Z,101527.17
2022-12-19T10:37:49.809Z,101523.95
2022-12-19T10:40:37.264Z,101521.86
2022-12-19T10:43:32.112Z,101515.04
2022-12-19T10:46:13.752Z,101513.42
2022-12-19T10:48:42.370Z,101512.33
2022-12-19T10:51:23.999Z,101507.68
2022-12-19T10:53:59.576Z,101501.50
2022-12-19T10:56:37.230Z,101500.00
2022-12-19T10:59:18.467Z,101500.22
2022-12-19T11:01:49.343Z,101501.94
2022-12-19T11:04:36.046Z,101506.60
2022-12-19T11:07:17.145Z,101504.48
2022-12-19T11:09:59.968Z,101502.12
2022-12-19T11:17:17.291Z,101495.72
2022-12-19T11:19:13.258Z,101498.37
2022-12-19T11:29:17.150Z,101488.95
2022-12-19T11:29:36.579Z,101482.67
2022-12-19T11:30:40.814Z,101472.88
2022-12-19T11:30:43.752Z,101475.02
2022-12-19T11:33:24.199Z,101459.11
2022-12-19T11:35:56.056Z,101448.70
2022-12-19T11:38:52.936Z,101445.46
2022-12-19T11:41:34.003Z,101439.38
2022-12-19T11:44:52.687Z,101437.66
2022-12-19T11:47:32.553Z,101434.98
2022-12-19T11:50:15.587Z,101433.63
2022-12-19T11:53:18.935Z,101427.48
2022-12-19T11:56:05.253Z,101419.46
2022-12-19T11:58:53.313Z,101412.89
2022-12-19T12:01:40.922Z,101412.11
2022-12-19T12:04:53.725Z,101403.30
2022-12-19T12:07:29.168Z,101404.26
2022-12-19T12:14:34.301Z,101405.02
2022-12-19T12:22:00.710Z,101409.66
2022-12-19T12:24:51.702Z,101403.17
2022-12-19T12:31:01.644Z,101409.27
2022-12-19T12:31:48.722Z,101408.42
2022-12-19T12:31:59.019Z,101411.57
2022-12-19T12:32:02.263Z,101412.54
2022-12-19T12:37:15.790Z,101406.22
2022-12-19T12:38:12.210Z,101401.98
2022-12-19T12:39:50.974Z,101407.05
2022-12-19T12:42:50.721Z,101397.67
2022-12-19T12:45:35.186Z,101394.22
2022-12-19T12:48:17.731Z,101395.10
2022-12-19T12:50:54.626Z,101384.90
2022-12-19T12:53:31.863Z,101372.87
2022-12-19T12:56:05.675Z,101372.20
2022-12-19T12:59:04.760Z,101369.92
2022-12-19T13:01:40.261Z,101371.18
2022-12-19T13:04:11.639Z,101367.42
2022-12-19T13:06:49.460Z,101363.11
2022-12-19T13:09:28.243Z,101353.41
2022-12-19T13:12:36.156Z,101347.60
2022-12-19T13:15:31.529Z,101346.77
2022-12-19T13:18:01.280Z,101328.63
2022-12-19T13:20:29.793Z,101317.07
2022-12-19T13:22:58.488Z,101321.20
2022-12-19T13:25:27.107Z,101335.04
2022-12-19T13:28:23.139Z,101335.67
2022-12-19T13:31:21.413Z,101329.77
2022-12-19T13:33:56.097Z,101340.54
2022-12-19T13:39:50.420Z,101333.34
2022-12-19T13:40:07.520Z,101333.84
2022-12-19T13:43:11.447Z,101335.83
2022-12-19T13:45:47.922Z,101345.20
2022-12-19T13:48:26.712Z,101350.65
2022-12-19T13:50:57.736Z,101352.13
2022-12-19T13:53:29.937Z,101353.54
2022-12-19T13:56:15.649Z,101350.89
2022-12-19T13:58:51.456Z,101347.59
2022-12-19T14:01:35.568Z,101339.28
2022-12-19T14:04:10.846Z,101336.77
2022-12-19T14:06:47.603Z,101329.83
2022-12-19T14:11:27.628Z,101325.48
2022-12-19T14:13:57.463Z,101323.86
2022-12-19T14:15:44.765Z,101325.95
2022-12-19T14:18:45.125Z,101328.58
2022-12-19T14:22:11.323Z,101332.14
2022-12-19T14:24:22.479Z,101322.73
2022-12-19T14:28:19.582Z,101323.38
2022-12-19T14:30:30.751Z,101318.90
2022-12-19T14:33:44.777Z,101318.86
2022-12-19T14:36:06.077Z,101321.87
2022-12-19T14:39:27.736Z,101318.88
2022-12-19T14:41:48.598Z,101317.60
2022-12-19T14:51:42.905Z,101311.16
2022-12-19T14:54:09.340Z,101315.71
2022-12-19T14:54:16.487Z,101314.79
2022-12-19T14:54:35.863Z,101314.00
2022-12-19T14:59:42.343Z,101301.75
2022-12-19T15:02:32.987Z,101304.09
2022-12-19T15:05:13.813Z,101306.73
2022-12-19T15:07:47.211Z,101301.77
2022-12-19T15:11:05.553Z,101301.07
2022-12-19T15:14:53.927Z,101300.70
2022-12-19T15:16:27.455Z,101307.09
2022-12-19T15:19:01.430Z,101304.75
2022-12-19T15:21:33.438Z,101297.98
2022-12-19T15:24:02.048Z,101293.92
2022-12-19T15:26:36.501Z,101294.49
2022-12-19T15:29:14.102Z,101300.23
2022-12-19T15:31:46.739Z,101298.60
2022-12-19T15:34:37.228Z,101297.97
2022-12-19T15:37:08.737Z,101287.34
2022-12-19T15:39:37.936Z,101279.92
2022-12-19T15:42:17.549Z,101276.30
2022-12-19T15:44:48.388Z,101274.05
2022-12-19T15:47:44.530Z,101276.25
2022-12-19T15:50:28.122Z,101281.58
2022-12-19T15:53:00.947Z,101287.39
2022-12-19T15:55:31.060Z,101297.46
2022-12-19T15:58:05.125Z,101294.83
2022-12-19T16:00:36.861Z,101288.92
2022-12-19T16:05:54.998Z,101259.34
2022-12-19T16:08:28.339Z,101257.08
2022-12-19T16:11:01.796Z,101245.40
2022-12-19T16:13:36.988Z,101243.87
2022-12-19T16:16:13.096Z,101245.42
2022-12-19T16:18:45.481Z,101238.59
2022-12-19T16:21:20.838Z,101230.17
2022-12-19T16:23:50.068Z,101234.07
2022-12-19T16:26:31.494Z,101234.04
2022-12-19T16:29:00.719Z,101232.84
2022-12-19T16:31:29.498Z,101224.57
2022-12-19T16:33:58.079Z,101224.55
2022-12-19T16:36:26.592Z,101222.98
2022-12-19T16:38:55.121Z,101217.13
2022-12-19T16:41:25.668Z,101224.14
2022-12-19T16:43:54.263Z,101218.27
2022-12-19T16:46:24.010Z,101213.45
2022-12-19T16:48:52.729Z,101214.97
2022-12-19T16:51:25.315Z,101209.10
2022-12-19T16:54:00.554Z,101207.86
2022-12-19T16:56:48.161Z,101203.65
2022-12-19T16:59:26.678Z,101209.58
2022-12-19T17:01:56.343Z,101211.88
2022-12-19T17:04:26.942Z,101204.58
2022-12-19T17:06:56.467Z,101203.29
2022-12-19T17:09:25.201Z,101201.85
2022-12-19T17:12:00.238Z,101195.80
2022-12-19T17:14:32.173Z,101202.78
2022-12-19T17:17:00.955Z,101206.17
2022-12-19T17:19:39.081Z,101210.78
2022-12-19T17:22:19.784Z,101202.64
2022-12-19T17:24:49.474Z,101204.46
2022-12-19T17:27:19.379Z,101200.47
2022-12-19T17:29:47.986Z,101195.14
2022-12-19T17:32:23.470Z,101199.95
2022-12-19T17:34:52.846Z,101195.80
2022-12-19T17:37:21.498Z,101194.19
2022-12-19T17:39:50.072Z,101194.13
2022-12-19T17:42:24.619Z,101191.86
2022-12-19T17:44:53.268Z,101190.81
2022-12-19T17:47:22.181Z,101188.20
2022-12-19T17:49:51.047Z,101183.20
2022-12-19T17:52:20.167Z,101180.95
2022-12-19T17:54:48.841Z,101176.80
2022-12-19T17:57:18.464Z,101179.37
2022-12-19T17:59:47.148Z,101175.09
2022-12-19T18:02:26.649Z,101178.84
2022-12-19T18:04:58.311Z,101173.13
2022-12-19T18:07:26.845Z,101167.05
2022-12-19T18:09:55.476Z,101172.66
2022-12-19T18:12:24.242Z,101178.22
2022-12-19T18:14:52.838Z,101175.02
2022-12-19T18:17:26.012Z,101173.86
2022-12-19T18:19:54.673Z,101171.81
2022-12-19T18:22:23.288Z,101169.80
2022-12-19T18:24:51.964Z,101168.48
2022-12-19T18:27:20.550Z,101162.17
2022-12-19T18:29:49.239Z,101161.38
2022-12-19T18:32:19.445Z,101167.48
2022-12-19T18:34:48.066Z,101163.25
2022-12-19T18:37:16.764Z,101150.42
2022-12-19T18:39:45.348Z,101152.64
2022-12-19T18:42:21.523Z,101156.11
2022-12-19T18:44:50.064Z,101157.73
2022-12-19T18:47:23.535Z,101166.91
2022-12-19T18:49:52.572Z,101163.31
2022-12-19T18:52:21.111Z,101167.27
2022-12-19T18:54:49.724Z,101164.52
2022-12-19T18:57:18.239Z,101162.64
2022-12-19T18:59:48.714Z,101164.52
2022-12-19T19:02:27.677Z,101163.24
2022-12-19T19:04:56.643Z,101154.52
2022-12-19T19:07:25.179Z,101141.14
2022-12-19T19:09:54.114Z,101141.89
2022-12-19T19:12:22.825Z,101140.45
2022-12-19T19:14:53.139Z,101137.54
2022-12-19T19:17:29.340Z,101142.33
2022-12-19T19:19:58.732Z,101136.26
2022-12-19T19:22:27.281Z,101135.34
2022-12-19T19:24:55.812Z,101127.19
2022-12-19T19:27:24.361Z,101127.70
2022-12-19T19:29:53.057Z,101127.67
2022-12-19T19:32:21.706Z,101119.27
2022-12-19T19:34:50.301Z,101122.41
2022-12-19T19:37:19.035Z,101126.77
2022-12-19T19:39:47.972Z,101126.96
2022-12-19T19:42:18.775Z,101129.02
2022-12-19T19:44:47.390Z,101125.17
2022-12-19T19:47:16.001Z,101124.91
2022-12-19T19:49:44.817Z,101126.23
2022-12-19T19:52:13.360Z,101131.54
2022-12-19T19:54:41.879Z,101126.33
2022-12-19T19:57:10.412Z,101123.23
2022-12-19T19:59:39.426Z,101133.52
2022-12-19T20:02:08.853Z,101129.21
2022-12-19T20:04:38.239Z,101125.12
2022-12-19T20:07:07.651Z,101127.14
2022-12-19T20:09:36.131Z,101128.33
2022-12-19T20:12:04.790Z,101128.30
2022-12-19T20:14:33.355Z,101135.14
2022-12-19T20:17:01.887Z,101130.48
2022-12-19T20:19:30.460Z,101126.68
2022-12-19T20:22:00.378Z,101122.30
2022-12-19T20:24:29.428Z,101110.89
2022-12-19T20:26:59.292Z,101102.62
2022-12-19T20:29:28.478Z,101104.29
2022-12-19T20:31:57.155Z,101103.34
2022-12-19T20:34:26.073Z,101098.04
2022-12-19T20:36:54.755Z,101094.42
2022-12-19T20:39:23.333Z,101099.79
2022-12-19T20:41:53.065Z,101098.09
2022-12-19T20:44:24.511Z,101094.98
2022-12-19T20:46:53.437Z,101089.67
2022-12-19T20:49:24.333Z,101082.63
2022-12-19T20:51:53.068Z,101087.60
2022-12-19T20:54:21.711Z,101098.59
2022-12-19T20:56:50.250Z,101096.85
2022-12-19T20:59:19.452Z,101100.95
2022-12-19T21:01:48.225Z,101101.75
2022-12-19T21:04:17.228Z,101099.12
2022-12-19T21:06:45.988Z,101102.85
2022-12-19T21:09:14.549Z,101107.41
2022-12-19T21:11:43.131Z,101106.73
2022-12-19T21:14:12.083Z,101098.38
2022-12-19T21:16:40.792Z,101103.97
2022-12-19T21:19:10.208Z,101102.27
2022-12-19T21:21:38.960Z,101096.75
2022-12-19T21:24:07.789Z,101100.04
2022-12-19T21:26:36.606Z,101097.33
2022-12-19T21:29:05.173Z,101093.52
2022-12-19T21:31:33.745Z,101086.30
2022-12-19T21:34:02.942Z,101086.95
2022-12-19T21:36:31.933Z,101081.89
2022-12-19T21:39:02.424Z,101080.35
2022-12-19T21:41:32.089Z,101083.09
2022-12-19T21:44:00.948Z,101078.95
2022-12-19T21:46:33.404Z,101078.29
2022-12-19T21:49:03.313Z,101082.73
2022-12-19T21:51:32.715Z,101084.88
2022-12-19T21:54:04.179Z,101084.95
2022-12-19T21:56:40.351Z,101078.95
2022-12-19T21:59:17.446Z,101079.12
2022-12-19T22:01:46.329Z,101083.82
2022-12-19T22:04:22.484Z,101081.60
2022-12-19T22:06:51.526Z,101083.16
2022-12-19T22:09:22.887Z,101079.20
2022-12-19T22:11:51.844Z,101078.65
2022-12-19T22:14:20.477Z,101074.44
2022-12-19T22:16:49.258Z,101071.23
2022-12-19T22:19:19.820Z,101075.16
2022-12-19T22:21:48.711Z,101068.91
2022-12-19T22:24:17.941Z,101077.45
2022-12-19T22:26:46.660Z,101075.98
2022-12-19T22:29:16.906Z,101071.09
2022-12-19T22:31:46.594Z,101065.69
2022-12-19T22:34:21.285Z,101058.02
2022-12-19T22:36:50.014Z,101055.20
2022-12-19T22:39:20.960Z,101057.88
2022-12-19T22:41:50.291Z,101066.45
2022-12-19T22:44:22.822Z,101062.95
2022-12-19T22:46:52.046Z,101061.13
2022-12-19T22:49:20.935Z,101062.30
2022-12-19T22:51:50.102Z,101058.08
2022-12-19T22:54:18.709Z,101059.98
2022-12-19T22:56:51.868Z,101049.78
2022-12-19T22:59:20.680Z,101046.89
2022-12-19T23:01:49.428Z,101048.58
2022-12-19T23:04:18.284Z,101050.58
2022-12-19T23:06:46.932Z,101047.91
2022-12-19T23:09:18.108Z,101049.96
2022-12-19T23:11:49.435Z,101049.23
2022-12-19T23:14:20.103Z,101037.16
2022-12-19T23:16:49.152Z,101033.70
2022-12-19T23:19:19.026Z,101025.61
2022-12-19T23:21:47.609Z,101020.98
2022-12-19T23:24:16.370Z,101022.52
2022-12-19T23:26:45.015Z,101024.71
2022-12-19T23:29:15.716Z,101017.27
2022-12-19T23:31:47.091Z,101021.65
2022-12-19T23:34:16.565Z,101015.34
2022-12-19T23:37:10.226Z,101015.58
2022-12-19T23:39:35.379Z,101016.02
2022-12-19T23:42:04.032Z,101015.64
2022-12-19T23:44:32.939Z,101007.27
2022-12-19T23:47:03.853Z,101005.51
2022-12-19T23:49:33.682Z,100993.71
2022-12-19T23:52:02.311Z,100996.13
2022-12-19T23:54:30.899Z,100993.69
2022-12-19T23:56:59.640Z,100996.60
2022-12-19T23:59:28.223Z,100992.05
